Time;durP1;ratioP1;P1;durP2;ratioP2;P2;SDS_P1;SDS_P2;PMS_P1;PMS_P2;Temp;Humidity;BMP_temperature;BMP_pressure;BME280_temperature;BME280_humidity;BME280_pressure;Samples;Min_cycle;Max_cycle;Signal;HPM_P1;HPM_P2
2023/05/23 00:01:01;;;;;;;13.23;12.33;;;;;;;16.88;100.00;100120.50;4972589;28;20207;-76
2023/05/23 00:03:30;;;;;;;14.00;12.90;;;;;;;16.97;100.00;100135.03;4972831;28;20211;-75
2023/05/23 00:05:57;;;;;;;13.30;12.30;;;;;;;17.03;100.00;100150.53;4972670;28;20258;-75
2023/05/23 00:08:24;;;;;;;13.80;12.77;;;;;;;17.11;100.00;100160.72;4972603;28;20250;-76
2023/05/23 00:10:50;;;;;;;13.77;12.77;;;;;;;17.17;100.00;100175.38;4972888;28;20677;-75
2023/05/23 00:13:17;;;;;;;16.03;14.63;;;;;;;16.67;100.00;100147.94;4972061;28;20621;-75
2023/05/23 00:15:44;;;;;;;16.40;15.10;;;;;;;16.40;100.00;100114.06;4972236;28;20306;-75
2023/05/23 00:18:11;;;;;;;17.10;15.83;;;;;;;16.15;100.00;100077.50;4972240;28;20799;-75
2023/05/23 00:20:39;;;;;;;17.07;15.97;;;;;;;16.05;100.00;100065.72;4974384;28;20262;-75
2023/05/23 00:23:06;;;;;;;17.03;15.83;;;;;;;16.25;100.00;100060.38;4975899;28;20245;-75
2023/05/23 00:25:34;;;;;;;17.83;16.47;;;;;;;16.30;100.00;100056.66;4976146;28;20218;-75
2023/05/23 00:28:01;;;;;;;15.83;14.57;;;;;;;16.46;100.00;100060.22;4975864;28;20231;-76
2023/05/23 00:30:28;;;;;;;17.80;16.30;;;;;;;16.43;100.00;100071.78;4976069;28;20211;-76
2023/05/23 00:32:54;;;;;;;16.33;15.07;;;;;;;16.62;100.00;100084.03;4975578;28;20203;-75
2023/05/23 00:35:23;;;;;;;16.63;15.43;;;;;;;16.75;100.00;100095.69;4976100;28;20673;-76
2023/05/23 00:37:50;;;;;;;16.70;15.40;;;;;;;16.85;100.00;100118.03;4975920;28;20231;-75
2023/05/23 00:40:17;;;;;;;16.57;15.20;;;;;;;16.76;100.00;100117.63;4976404;28;20211;-75
2023/05/23 00:42:44;;;;;;;17.77;16.13;;;;;;;16.57;100.00;100117.66;4975901;28;20238;-75
2023/05/23 00:45:12;;;;;;;16.87;15.63;;;;;;;16.54;100.00;100108.13;4975811;28;20320;-75
2023/05/23 00:47:39;;;;;;;16.43;15.20;;;;;;;16.60;100.00;100105.19;4975519;28;20204;-75
2023/05/23 00:50:07;;;;;;;17.53;16.30;;;;;;;16.32;100.00;100097.78;4975892;28;20281;-74
2023/05/23 00:52:36;;;;;;;16.77;15.33;;;;;;;16.51;100.00;100083.72;4975724;28;20215;-75
2023/05/23 00:55:02;;;;;;;18.37;16.83;;;;;;;16.47;100.00;100089.16;4975481;28;20739;-75
2023/05/23 00:57:29;;;;;;;18.07;16.60;;;;;;;16.22;100.00;100086.00;4975401;28;20266;-75
2023/05/23 00:59:55;;;;;;;18.53;17.23;;;;;;;16.10;100.00;100065.53;4975664;28;20218;-75
2023/05/23 01:02:22;;;;;;;19.93;18.43;;;;;;;15.84;100.00;100057.91;4975764;28;20235;-75
2023/05/23 01:04:53;;;;;;;21.67;19.97;;;;;;;15.81;100.00;100044.88;4975675;28;20278;-75
2023/05/23 01:07:19;;;;;;;24.67;22.47;;;;;;;15.75;100.00;100047.81;4975288;28;20257;-75
2023/05/23 01:09:47;;;;;;;25.03;22.70;;;;;;;15.95;100.00;100057.41;4975408;28;20285;-75
2023/05/23 01:12:20;;;;;;;30.50;27.53;;;;;;;15.86;100.00;100057.84;4975422;28;20688;-75
2023/05/23 01:14:52;;;;;;;28.30;25.70;;;;;;;15.96;100.00;100060.91;4975090;28;20242;-75
2023/05/23 01:17:25;;;;;;;29.33;26.70;;;;;;;16.04;100.00;100064.03;4974980;28;20242;-75
2023/05/23 01:19:59;;;;;;;33.10;28.17;;;;;;;16.06;100.00;100064.81;4975632;28;20264;-75
2023/05/23 01:22:39;;;;;;;37.13;32.43;;;;;;;16.07;100.00;100072.63;4975564;28;20656;-75
2023/05/23 01:25:20;;;;;;;50.67;37.70;;;;;;;15.99;100.00;100076.53;4975447;28;20214;-74
2023/05/23 01:27:52;;;;;;;59.60;42.70;;;;;;;15.85;100.00;100085.94;4975393;28;20231;-76
2023/05/23 01:30:20;;;;;;;63.43;44.47;;;;;;;15.84;100.00;100081.59;4975643;28;20207;-76
2023/05/23 01:32:50;;;;;;;71.43;46.20;;;;;;;15.91;100.00;100095.31;4974363;28;20214;-76
2023/05/23 01:35:21;;;;;;;59.23;47.10;;;;;;;15.81;100.00;100109.84;4974702;28;20253;-75
2023/05/23 01:37:47;;;;;;;62.17;45.80;;;;;;;15.84;100.00;100109.72;4974757;28;20253;-76
2023/05/23 01:40:14;;;;;;;63.93;46.77;;;;;;;15.75;100.00;100125.91;4974994;28;20220;-76
2023/05/23 01:42:41;;;;;;;62.93;45.70;;;;;;;15.67;100.00;100116.53;4974877;28;20227;-76
2023/05/23 01:45:11;;;;;;;53.67;43.33;;;;;;;15.50;100.00;100127.00;4974617;28;20289;-76
2023/05/23 01:47:40;;;;;;;60.57;44.43;;;;;;;15.26;100.00;100126.28;4974597;28;20210;-76
2023/05/23 01:50:07;;;;;;;58.90;44.73;;;;;;;15.13;100.00;100112.81;4974483;28;20257;-76
2023/05/23 01:52:34;;;;;;;54.93;42.70;;;;;;;15.11;100.00;100109.41;4974822;28;20296;-76
2023/05/23 01:55:02;;;;;;;57.07;43.03;;;;;;;14.97;100.00;100115.25;4974726;28;20209;-76
2023/05/23 01:57:30;;;;;;;54.17;42.60;;;;;;;14.91;100.00;100125.19;4974712;28;20211;-76
2023/05/23 01:59:57;;;;;;;52.10;39.80;;;;;;;15.00;100.00;100128.25;4974951;28;20214;-76
2023/05/23 02:02:25;;;;;;;46.17;38.40;;;;;;;14.78;100.00;100133.53;4974495;28;20243;-76
2023/05/23 02:04:52;;;;;;;47.87;38.53;;;;;;;14.75;100.00;100135.47;4974731;28;20278;-76
2023/05/23 02:07:21;;;;;;;48.37;37.13;;;;;;;14.69;100.00;100134.78;4974491;28;20214;-76
2023/05/23 02:09:48;;;;;;;40.50;32.73;;;;;;;14.56;100.00;100144.06;4974231;28;20234;-76
2023/05/23 02:12:14;;;;;;;32.17;29.03;;;;;;;14.49;100.00;100148.69;4974463;28;20264;-76
2023/05/23 02:14:41;;;;;;;30.10;27.10;;;;;;;14.52;100.00;100160.84;4974063;28;20222;-76
2023/05/23 02:17:08;;;;;;;29.23;26.30;;;;;;;14.66;100.00;100166.41;4973743;28;20697;-76
2023/05/23 02:19:36;;;;;;;25.80;23.33;;;;;;;14.71;100.00;100184.66;4973653;28;20703;-76
2023/05/23 02:22:03;;;;;;;22.90;20.90;;;;;;;14.64;100.00;100201.56;4976047;28;20285;-76
2023/05/23 02:24:29;;;;;;;21.93;20.10;;;;;;;14.68;100.00;100209.25;4976072;28;20301;-77
2023/05/23 02:26:56;;;;;;;23.13;20.73;;;;;;;14.64;100.00;100206.81;4975402;28;20214;-76
2023/05/23 02:29:22;;;;;;;22.03;20.23;;;;;;;14.52;100.00;100204.66;4975887;28;20234;-76
2023/05/23 02:31:48;;;;;;;23.47;21.50;;;;;;;14.36;100.00;100191.25;4975255;28;20210;-77
2023/05/23 02:34:15;;;;;;;22.83;20.97;;;;;;;14.36;100.00;100197.34;4974411;28;20217;-76
2023/05/23 02:36:43;;;;;;;21.50;19.63;;;;;;;14.17;100.00;100212.09;4973550;28;20207;-75
2023/05/23 02:39:09;;;;;;;18.77;17.27;;;;;;;14.07;100.00;100217.69;4973220;28;20225;-75
2023/05/23 02:41:36;;;;;;;20.00;18.37;;;;;;;13.99;100.00;100214.47;4973481;28;20213;-76
2023/05/23 02:44:02;;;;;;;19.00;17.60;;;;;;;14.02;100.00;100213.53;4973736;28;20235;-75
2023/05/23 02:46:29;;;;;;;19.40;17.80;;;;;;;14.18;100.00;100212.03;4973547;28;20210;-75
2023/05/23 02:48:55;;;;;;;18.47;17.03;;;;;;;14.03;100.00;100213.47;4973324;28;20237;-75
2023/05/23 02:51:21;;;;;;;18.87;17.37;;;;;;;14.13;100.00;100218.38;4973479;28;20216;-76
2023/05/23 02:53:49;;;;;;;18.40;16.70;;;;;;;14.03;100.00;100223.97;4973645;28;20201;-76
2023/05/23 02:56:16;;;;;;;17.63;16.20;;;;;;;14.13;100.00;100226.25;4972794;28;20256;-76
2023/05/23 02:58:42;;;;;;;19.17;17.43;;;;;;;14.13;100.00;100226.25;4972929;28;20230;-76
2023/05/23 03:01:08;;;;;;;19.20;17.50;;;;;;;14.08;100.00;100222.03;4973272;28;20269;-76
2023/05/23 03:03:35;;;;;;;18.33;16.83;;;;;;;14.07;100.00;100229.94;4973254;28;20229;-76
2023/05/23 03:06:03;;;;;;;17.73;16.40;;;;;;;14.15;100.00;100233.13;4973281;28;20304;-76
2023/05/23 03:08:30;;;;;;;16.57;14.93;;;;;;;14.17;100.00;100238.34;4973428;28;20710;-76
2023/05/23 03:10:58;;;;;;;18.20;16.67;;;;;;;13.99;100.00;100232.00;4972760;28;20275;-76
2023/05/23 03:13:24;;;;;;;18.20;16.80;;;;;;;13.87;100.00;100228.03;4973345;28;20267;-75
2023/05/23 03:15:50;;;;;;;18.83;17.23;;;;;;;13.77;100.00;100219.66;4972398;28;20268;-76
2023/05/23 03:18:17;;;;;;;20.43;18.37;;;;;;;13.69;100.00;100203.34;4973382;28;20229;-76
2023/05/23 03:20:43;;;;;;;19.43;17.67;;;;;;;13.59;100.00;100199.31;4973037;28;20209;-76
2023/05/23 03:23:09;;;;;;;19.73;18.13;;;;;;;13.59;100.00;100180.97;4972293;28;20233;-76
2023/05/23 03:25:36;;;;;;;20.70;18.97;;;;;;;13.64;100.00;100179.91;4972828;28;20232;-76
2023/05/23 03:28:04;;;;;;;20.33;18.50;;;;;;;13.69;100.00;100177.94;4973109;28;20228;-76
2023/05/23 03:30:30;;;;;;;20.13;18.57;;;;;;;13.61;100.00;100193.09;4972501;28;20283;-75
2023/05/23 03:32:57;;;;;;;18.83;17.33;;;;;;;13.62;100.00;100191.38;4973095;28;20290;-76
2023/05/23 03:35:23;;;;;;;18.73;17.13;;;;;;;13.63;100.00;100198.31;4973009;28;20263;-76
2023/05/23 03:37:49;;;;;;;19.20;17.60;;;;;;;13.68;100.00;100205.09;4972822;28;20254;-76
2023/05/23 03:40:16;;;;;;;17.97;16.10;;;;;;;13.68;100.00;100189.38;4973044;28;20275;-76
2023/05/23 03:42:42;;;;;;;18.43;16.77;;;;;;;13.76;100.00;100201.38;4972804;28;20280;-76
2023/05/23 03:45:11;;;;;;;17.90;16.40;;;;;;;13.91;100.00;100208.66;4972727;28;20681;-76
2023/05/23 03:47:37;;;;;;;17.67;16.13;;;;;;;13.92;100.00;100212.16;4972132;28;20215;-75
2023/05/23 03:50:04;;;;;;;18.53;17.10;;;;;;;13.83;100.00;100214.19;4970733;28;20286;-76
2023/05/23 03:52:30;;;;;;;19.03;17.57;;;;;;;13.85;100.00;100216.75;4972683;28;20200;-76
2023/05/23 03:54:57;;;;;;;18.40;16.90;;;;;;;13.88;100.00;100211.41;4973584;28;20737;-76
2023/05/23 03:57:23;;;;;;;18.67;17.17;;;;;;;13.85;100.00;100204.47;4976702;28;20343;-76
2023/05/23 03:59:50;;;;;;;18.47;17.03;;;;;;;13.88;100.00;100208.78;4975775;28;20206;-76
2023/05/23 04:02:17;;;;;;;19.87;18.07;;;;;;;13.78;100.00;100199.53;4976640;28;20213;-76
2023/05/23 04:04:44;;;;;;;20.17;18.50;;;;;;;13.77;100.00;100190.78;4976811;28;20671;-76
2023/05/23 04:07:10;;;;;;;20.53;18.80;;;;;;;13.85;100.00;100183.50;4976150;28;20208;-76
2023/05/23 04:09:36;;;;;;;21.33;19.33;;;;;;;13.77;100.00;100175.06;4976122;28;20280;-76
2023/05/23 04:12:03;;;;;;;20.47;18.47;;;;;;;13.77;100.00;100175.06;4976650;28;20208;-76
2023/05/23 04:14:32;;;;;;;19.57;17.77;;;;;;;13.78;100.00;100175.94;4975947;28;20741;-75
2023/05/23 04:16:59;;;;;;;19.37;17.63;;;;;;;13.82;100.00;100173.13;4976443;28;20212;-76
2023/05/23 04:19:27;;;;;;;18.67;17.07;;;;;;;13.80;100.00;100174.94;4976009;28;20586;-76
2023/05/23 04:21:53;;;;;;;17.67;16.13;;;;;;;13.70;100.00;100170.97;4975866;28;20552;-75
2023/05/23 04:24:20;;;;;;;18.30;16.73;;;;;;;13.65;100.00;100180.75;4976282;28;20593;-76
2023/05/23 04:26:46;;;;;;;19.27;17.47;;;;;;;13.65;100.00;100165.84;4976362;28;20219;-75
2023/05/23 04:29:12;;;;;;;18.30;16.83;;;;;;;13.51;100.00;100163.72;4976467;28;20228;-75
2023/05/23 04:31:40;;;;;;;20.97;18.97;;;;;;;13.48;100.00;100161.22;4976282;28;20670;-75
2023/05/23 04:34:06;;;;;;;18.47;16.83;;;;;;;13.55;100.00;100150.53;4976385;28;20204;-76
2023/05/23 04:36:36;;;;;;;19.30;17.63;;;;;;;13.62;100.00;100154.66;4975672;28;20295;-76
2023/05/23 04:39:03;;;;;;;19.77;18.07;;;;;;;13.62;100.00;100163.38;4976372;28;20286;-76
2023/05/23 04:41:30;;;;;;;21.17;19.07;;;;;;;13.81;100.00;100167.94;4976154;28;20266;-76
2023/05/23 04:43:57;;;;;;;19.87;18.23;;;;;;;13.95;100.00;100164.78;4976232;28;20229;-76
2023/05/23 04:46:25;;;;;;;18.43;16.90;;;;;;;14.09;100.00;100170.38;4975605;28;20204;-75
2023/05/23 04:48:52;;;;;;;15.57;14.20;;;;;;;14.19;100.00;100184.88;4976057;28;20237;-76
2023/05/23 04:51:20;;;;;;;13.43;12.33;;;;;;;14.25;100.00;100202.16;4975368;28;20265;-76
2023/05/23 04:53:49;;;;;;;11.63;10.73;;;;;;;14.18;100.00;100212.03;4975927;28;20216;-75
2023/05/23 04:56:16;;;;;;;11.53;10.73;;;;;;;14.15;100.00;100225.25;4975405;28;20732;-76
2023/05/23 04:58:44;;;;;;;10.33;9.63;;;;;;;14.06;100.00;100217.75;4975474;28;20245;-76
2023/05/23 05:01:10;;;;;;;10.07;9.20;;;;;;;14.20;100.00;100219.88;4975928;28;20261;-76
2023/05/23 05:03:37;;;;;;;9.70;8.90;;;;;;;14.34;100.00;100240.34;4975466;28;20233;-76
2023/05/23 05:06:04;;;;;;;9.73;9.00;;;;;;;14.07;100.00;100243.06;4975611;28;20206;-76
2023/05/23 05:08:31;;;;;;;10.03;9.23;;;;;;;14.09;100.00;100243.88;4975162;28;20725;-76
2023/05/23 05:10:59;;;;;;;9.73;9.03;;;;;;;13.89;100.00;100229.72;4975526;28;20212;-76
2023/05/23 05:13:25;;;;;;;10.00;9.20;;;;;;;13.99;100.00;100237.25;4975807;28;20204;-76
2023/05/23 05:15:52;;;;;;;10.80;9.90;;;;;;;13.93;100.00;100234.84;5003811;23;20723;-78
2023/05/23 05:18:18;;;;;;;11.27;10.37;;;;;;;13.86;100.00;100218.47;4994726;28;20231;-78
2023/05/23 05:20:46;;;;;;;11.03;10.03;;;;;;;13.95;100.00;100220.75;4995453;28;20215;-79
2023/05/23 05:23:12;;;;;;;11.17;10.17;;;;;;;13.81;100.00;100226.50;4995303;28;20239;-79
2023/05/23 05:25:40;;;;;;;11.70;10.80;;;;;;;13.84;100.00;100222.94;4994883;28;20228;-78
2023/05/23 05:28:07;;;;;;;10.47;9.67;;;;;;;14.00;100.00;100229.31;4996867;28;20208;-78
2023/05/23 05:30:34;;;;;;;10.90;9.97;;;;;;;14.02;100.00;100243.25;4996408;28;20207;-78
2023/05/23 05:33:02;;;;;;;10.47;9.57;;;;;;;14.00;100.00;100246.84;4996741;28;20211;-78
2023/05/23 05:35:29;;;;;;;10.47;9.57;;;;;;;13.73;100.00;100240.81;4995340;28;20231;-78
2023/05/23 05:37:55;;;;;;;10.43;9.43;;;;;;;13.81;100.00;100226.50;4996019;28;20262;-80
2023/05/23 05:40:22;;;;;;;10.93;9.93;;;;;;;13.84;100.00;100222.94;4996953;28;20268;-77
2023/05/23 05:42:48;;;;;;;11.27;10.40;;;;;;;13.61;100.00;100213.25;5001677;28;20208;-78
2023/05/23 05:45:16;;;;;;;11.93;11.03;;;;;;;13.68;100.00;100199.00;4996518;28;20948;-78
2023/05/23 05:47:42;;;;;;;11.87;10.77;;;;;;;13.60;100.00;100193.19;4995972;28;20243;-78
2023/05/23 05:50:10;;;;;;;12.23;11.17;;;;;;;13.63;100.00;100195.69;4996186;28;20250;-79
2023/05/23 05:52:38;;;;;;;11.73;10.73;;;;;;;13.75;100.00;100195.22;4996627;28;20207;-78
2023/05/23 05:55:05;;;;;;;12.17;11.17;;;;;;;13.73;100.00;100193.59;4996164;28;20232;-78
2023/05/23 05:57:32;;;;;;;12.87;11.80;;;;;;;13.50;100.00;100190.88;4996443;28;20640;-79
2023/05/23 05:59:58;;;;;;;12.30;11.30;;;;;;;13.47;100.00;100177.84;5000562;28;20207;-78
2023/05/23 06:02:26;;;;;;;12.50;11.40;;;;;;;13.68;100.00;100181.50;5006040;28;20211;-78
2023/05/23 06:04:52;;;;;;;11.37;10.47;;;;;;;13.78;100.00;100186.41;5004364;28;20695;-78
2023/05/23 06:07:18;;;;;;;9.80;9.10;;;;;;;13.87;100.00;100197.44;5004022;28;20299;-78
2023/05/23 06:09:45;;;;;;;9.30;8.67;;;;;;;13.67;100.00;100192.03;5003602;28;20207;-78
2023/05/23 06:12:11;;;;;;;10.63;9.73;;;;;;;13.79;100.00;100193.38;5000352;28;20232;-78
2023/05/23 06:14:37;;;;;;;10.00;9.20;;;;;;;13.89;100.00;100202.59;4994741;28;20258;-77
2023/05/23 06:17:04;;;;;;;9.17;8.47;;;;;;;13.72;100.00;100191.91;4995128;28;20655;-77
2023/05/23 06:19:31;;;;;;;10.27;9.47;;;;;;;13.59;100.00;100178.34;4994296;28;20647;-78
2023/05/23 06:21:58;;;;;;;11.30;10.33;;;;;;;13.63;100.00;100178.16;4994407;28;20218;-78
2023/05/23 06:24:24;;;;;;;11.13;10.33;;;;;;;13.62;100.00;100170.38;4994678;28;20231;-77
2023/05/23 06:26:51;;;;;;;10.40;9.60;;;;;;;13.62;100.00;100180.88;4996511;28;20274;-78
2023/05/23 06:29:17;;;;;;;10.60;9.70;;;;;;;13.68;100.00;100175.41;4999107;28;20257;-78
2023/05/23 06:31:43;;;;;;;10.77;9.97;;;;;;;13.70;100.00;100186.69;4999320;28;20878;-78
2023/05/23 06:34:10;;;;;;;10.17;9.37;;;;;;;13.73;100.00;100185.72;4997467;28;20679;-78
2023/05/23 06:36:37;;;;;;;10.10;9.20;;;;;;;13.79;100.00;100193.38;4998664;28;20322;-78
2023/05/23 06:39:04;;;;;;;9.30;8.70;;;;;;;13.75;100.00;100199.63;4998925;28;20690;-79
2023/05/23 06:41:30;;;;;;;10.00;9.30;;;;;;;13.59;100.00;100197.56;4998159;28;20253;-78
2023/05/23 06:43:56;;;;;;;10.23;9.43;;;;;;;13.72;100.00;100194.53;4998011;28;20256;-78
2023/05/23 06:46:22;;;;;;;11.27;10.47;;;;;;;13.74;100.00;100195.31;4997660;28;20229;-78
2023/05/23 06:48:49;;;;;;;9.80;9.00;;;;;;;13.59;100.00;100201.94;4998272;28;20239;-78
2023/05/23 06:51:15;;;;;;;11.17;10.17;;;;;;;13.62;100.00;100193.97;4998289;28;20213;-78
2023/05/23 06:53:43;;;;;;;9.97;9.27;;;;;;;13.55;100.00;100201.19;4998083;28;20242;-78
2023/05/23 06:56:09;;;;;;;9.50;8.80;;;;;;;13.51;100.00;100205.69;4998016;28;20268;-79
2023/05/23 06:58:35;;;;;;;11.80;10.90;;;;;;;13.57;100.00;100204.63;4997973;28;20204;-79
2023/05/23 07:01:02;;;;;;;10.17;9.43;;;;;;;13.44;100.00;100219.09;4998135;28;20212;-79
2023/05/23 07:03:28;;;;;;;11.57;10.57;;;;;;;13.49;100.00;100220.63;4998409;28;20215;-78
2023/05/23 07:05:54;;;;;;;10.57;9.70;;;;;;;13.46;100.00;100220.75;4997289;28;20307;-77
2023/05/23 07:08:21;;;;;;;10.73;10.03;;;;;;;13.43;100.00;100228.69;4994365;28;20246;-77
2023/05/23 07:10:48;;;;;;;10.47;9.67;;;;;;;13.44;100.00;100229.56;4994879;28;20674;-79
2023/05/23 07:13:15;;;;;;;9.93;9.20;;;;;;;13.45;100.00;100237.38;4994782;28;20266;-78
2023/05/23 07:15:41;;;;;;;10.87;10.07;;;;;;;13.39;100.00;100234.94;4993144;28;20238;-77
2023/05/23 07:18:07;;;;;;;11.67;10.63;;;;;;;13.32;100.00;100241.34;4993695;28;20243;-77
2023/05/23 07:20:34;;;;;;;13.20;12.20;;;;;;;13.15;100.00;100246.22;4993935;28;20245;-77
2023/05/23 07:23:00;;;;;;;13.07;11.93;;;;;;;13.08;100.00;100254.31;4994007;28;20255;-80
2023/05/23 07:25:26;;;;;;;13.50;12.40;;;;;;;13.03;100.00;100245.72;4992875;28;20223;-78
2023/05/23 07:27:54;;;;;;;13.73;12.60;;;;;;;13.08;100.00;100251.69;4992140;28;20204;-78
2023/05/23 07:30:22;;;;;;;14.10;13.00;;;;;;;12.98;100.00;100249.38;4992209;28;20207;-77
2023/05/23 07:32:48;;;;;;;14.30;13.10;;;;;;;13.08;100.00;100262.16;4993933;28;20202;-77
2023/05/23 07:35:15;;;;;;;13.97;12.90;;;;;;;13.02;100.00;100266.72;4994267;28;20244;-77
2023/05/23 07:37:42;;;;;;;14.20;13.10;;;;;;;13.13;100.00;100266.41;4994364;28;20207;-78
2023/05/23 07:40:09;;;;;;;14.53;13.33;;;;;;;13.01;100.00;100260.63;4994057;28;20245;-78
2023/05/23 07:42:35;;;;;;;15.03;13.83;;;;;;;13.11;100.00;100269.06;4994242;28;20214;-78
2023/05/23 07:45:03;;;;;;;14.20;13.00;;;;;;;13.03;100.00;100276.31;4994061;28;20277;-77
2023/05/23 07:47:29;;;;;;;13.80;12.60;;;;;;;12.96;100.00;100277.41;4994397;28;20274;-78
2023/05/23 07:49:56;;;;;;;12.73;11.73;;;;;;;13.00;100.00;100277.28;4994474;28;20239;-78
2023/05/23 07:52:22;;;;;;;12.63;11.53;;;;;;;12.99;100.00;100277.31;4994040;28;20239;-78
2023/05/23 07:54:48;;;;;;;11.80;10.90;;;;;;;13.04;100.00;100278.88;4994326;28;20707;-78
2023/05/23 07:57:15;;;;;;;10.20;9.40;;;;;;;13.08;100.00;100283.13;4993648;28;20252;-78
2023/05/23 07:59:41;;;;;;;10.27;9.57;;;;;;;13.00;100.00;100281.63;4993726;28;20702;-78
2023/05/23 08:02:09;;;;;;;10.30;9.50;;;;;;;13.04;100.00;100291.09;4993589;28;20242;-77
2023/05/23 08:04:35;;;;;;;9.10;8.50;;;;;;;12.96;100.00;100295.75;4991869;28;20698;-76
2023/05/23 08:07:04;;;;;;;10.17;9.47;;;;;;;12.86;100.00;100285.56;4992753;28;20249;-76
2023/05/23 08:09:30;;;;;;;10.67;9.87;;;;;;;12.87;100.00;100289.03;4993454;28;20294;-77
2023/05/23 08:11:56;;;;;;;10.37;9.67;;;;;;;12.78;100.00;100299.78;4993165;28;20211;-77
2023/05/23 08:14:23;;;;;;;10.67;9.87;;;;;;;12.81;100.00;100300.56;4993050;28;20243;-76
2023/05/23 08:16:49;;;;;;;10.93;10.17;;;;;;;12.89;100.00;100305.56;4992177;28;20796;-76
2023/05/23 08:19:17;;;;;;;11.53;10.73;;;;;;;12.84;100.00;100305.72;4992568;28;20270;-76
2023/05/23 08:21:43;;;;;;;11.90;11.10;;;;;;;12.84;100.00;100315.31;4993444;28;20238;-76
2023/05/23 08:24:11;;;;;;;12.17;11.27;;;;;;;12.80;100.00;100317.16;4993156;28;20720;-76
2023/05/23 08:26:38;;;;;;;12.03;11.03;;;;;;;12.83;100.00;100313.59;4992477;28;20223;-76
2023/05/23 08:29:04;;;;;;;11.80;11.00;;;;;;;12.90;100.00;100320.34;4993546;28;20227;-76
2023/05/23 08:31:31;;;;;;;13.13;11.93;;;;;;;12.87;100.00;100325.72;4992913;28;20236;-76
2023/05/23 08:33:59;;;;;;;13.57;12.57;;;;;;;12.83;100.00;100331.94;4992229;28;20214;-76
2023/05/23 08:36:27;;;;;;;13.03;12.13;;;;;;;12.77;100.00;100327.75;4992506;28;20228;-77
2023/05/23 08:38:53;;;;;;;15.10;14.00;;;;;;;12.77;100.00;100343.47;4993280;28;20215;-76
2023/05/23 08:41:21;;;;;;;14.53;13.37;;;;;;;12.80;100.00;100342.50;4993455;28;20211;-76
2023/05/23 08:43:48;;;;;;;14.13;12.83;;;;;;;12.67;100.00;100340.25;4994312;28;20249;-76
2023/05/23 08:46:14;;;;;;;13.33;12.30;;;;;;;12.61;100.00;100345.66;4995249;28;20265;-76
2023/05/23 08:48:42;;;;;;;13.93;12.83;;;;;;;12.69;100.00;100358.53;4997420;28;20211;-77
2023/05/23 08:51:10;;;;;;;14.60;13.10;;;;;;;12.50;100.00;100361.66;4997049;28;20250;-78
2023/05/23 08:53:41;;;;;;;15.33;13.93;;;;;;;12.50;100.00;100372.13;4996801;28;20207;-76
2023/05/23 08:56:10;;;;;;;16.63;15.10;;;;;;;12.41;100.00;100368.94;4996116;28;20262;-76
2023/05/23 08:58:37;;;;;;;16.93;14.93;;;;;;;12.44;100.00;100371.47;4996152;28;20210;-76
2023/05/23 09:01:04;;;;;;;17.07;15.50;;;;;;;12.42;100.00;100376.72;4995463;28;20268;-76
2023/05/23 09:03:32;;;;;;;15.83;14.20;;;;;;;12.19;100.00;100390.47;4995909;28;20211;-76
2023/05/23 09:05:58;;;;;;;16.20;14.70;;;;;;;12.25;100.00;100381.56;4994945;28;20263;-76
2023/05/23 09:08:25;;;;;;;14.60;13.40;;;;;;;12.21;100.00;100386.03;4995747;28;20266;-76
2023/05/23 09:10:52;;;;;;;14.47;13.03;;;;;;;12.20;100.00;100392.16;4996685;28;20248;-77
2023/05/23 09:13:19;;;;;;;14.37;12.87;;;;;;;12.19;100.00;100393.06;4995591;28;20258;-76
2023/05/23 09:16:02;;;;;;;12.83;11.73;;;;;;;12.13;100.00;100414.19;4994973;28;20234;-77
2023/05/23 09:18:33;;;;;;;11.30;10.20;;;;;;;12.18;100.00;100414.03;4994305;28;20637;-77
2023/05/23 09:21:00;;;;;;;10.90;9.10;;;;;;;12.16;100.00;100406.22;4994741;28;20210;-76
2023/05/23 09:23:30;;;;;;;10.57;9.57;;;;;;;12.17;100.00;100418.44;4994626;28;20684;-76
2023/05/23 09:26:02;;;;;;;13.43;10.60;;;;;;;12.22;100.00;100416.53;4994500;28;20752;-76
2023/05/23 09:28:28;;;;;;;10.90;9.90;;;;;;;12.31;100.00;100431.16;4994791;28;20615;-77
2023/05/23 09:30:58;;;;;;;9.43;8.67;;;;;;;12.28;100.00;100426.84;4995396;28;20659;-77
2023/05/23 09:33:29;;;;;;;8.07;7.20;;;;;;;12.12;100.00;100444.69;4994994;28;20215;-77
2023/05/23 09:35:55;;;;;;;8.03;6.17;;;;;;;12.08;100.00;100450.06;4995211;28;20234;-76
2023/05/23 09:38:21;;;;;;;6.40;5.80;;;;;;;11.91;100.00;100443.50;4995518;28;20289;-76
2023/05/23 09:40:48;;;;;;;8.13;7.33;;;;;;;11.86;100.00;100452.31;4995533;28;20238;-77
2023/05/23 09:43:17;;;;;;;7.50;6.80;;;;;;;11.82;100.00;100461.97;4994865;28;20743;-76
2023/05/23 09:45:43;;;;;;;7.93;6.90;;;;;;;11.77;100.00;100471.66;4995033;28;20685;-76
2023/05/23 09:48:12;;;;;;;8.37;7.03;;;;;;;11.73;100.00;100464.78;4995754;28;20285;-76
2023/05/23 09:50:39;;;;;;;11.07;7.03;;;;;;;11.66;100.00;100468.47;4995693;28;20209;-77
2023/05/23 09:53:05;;;;;;;7.70;6.10;;;;;;;11.54;100.00;100456.53;4993050;28;20231;-76
2023/05/23 09:55:31;;;;;;;5.90;5.30;;;;;;;11.50;100.00;100468.81;4995291;28;20256;-77
2023/05/23 09:57:59;;;;;;;8.00;6.10;;;;;;;11.58;100.00;100475.63;4995653;28;20208;-77
2023/05/23 10:00:27;;;;;;;6.33;5.73;;;;;;;11.50;100.00;100471.41;4995793;28;20357;-76
2023/05/23 10:02:58;;;;;;;7.73;6.07;;;;;;;11.52;100.00;100477.47;4996148;28;20642;-77
2023/05/23 10:05:34;;;;;;;6.87;6.27;;;;;;;11.57;100.00;100493.03;4995747;28;20265;-77
2023/05/23 10:08:02;;;;;;;6.77;6.23;;;;;;;11.45;100.00;100506.38;4995779;28;20207;-78
2023/05/23 10:10:32;;;;;;;6.00;5.23;;;;;;;11.37;100.00;100490.88;4995473;28;20221;-76
2023/05/23 10:13:01;;;;;;;5.90;5.40;;;;;;;11.42;100.00;100496.03;5007681;28;20212;-78
2023/05/23 10:15:34;;;;;;;8.03;5.97;;;;;;;11.42;100.00;100501.25;4999139;28;20293;-77
2023/05/23 10:18:06;;;;;;;5.43;4.93;;;;;;;11.44;100.00;100495.09;4994604;28;20243;-76
2023/05/23 10:20:35;;;;;;;6.00;5.50;;;;;;;11.42;100.00;100509.94;4994390;28;20250;-77
2023/05/23 10:23:04;;;;;;;4.80;4.43;;;;;;;11.40;100.00;100519.56;4994781;28;20253;-77
2023/05/23 10:25:30;;;;;;;4.83;4.43;;;;;;;11.47;100.00;100523.75;4986348;28;20226;-77
2023/05/23 10:27:59;;;;;;;5.17;4.77;;;;;;;11.48;100.00;100530.72;4993596;28;20232;-76
2023/05/23 10:30:26;;;;;;;4.33;3.93;;;;;;;11.55;100.00;100512.28;4994387;28;20204;-77
2023/05/23 10:32:54;;;;;;;4.20;3.80;;;;;;;11.51;100.00;100533.25;4994625;28;20247;-76
2023/05/23 10:35:29;;;;;;;4.27;3.87;;;;;;;11.52;100.00;100524.53;4994865;28;20280;-77
2023/05/23 10:37:58;;;;;;;4.97;3.90;;;;;;;11.52;100.00;100527.16;4994260;28;20205;-78
2023/05/23 10:40:34;;;;;;;4.73;4.33;;;;;;;11.55;100.00;100523.59;4993730;28;20242;-78
2023/05/23 10:43:06;;;;;;;6.57;4.83;;;;;;;11.47;100.00;100534.22;4993830;28;20313;-78
2023/05/23 10:45:42;;;;;;;9.40;6.77;;;;;;;11.40;100.00;100527.41;4993477;28;20261;-77
2023/05/23 10:48:21;;;;;;;7.80;6.33;;;;;;;11.40;100.00;100530.03;4993319;28;20305;-78
2023/05/23 10:51:02;;;;;;;10.37;7.63;;;;;;;11.35;100.00;100526.63;4998156;28;20217;-78
2023/05/23 10:53:30;;;;;;;13.37;8.73;;;;;;;11.40;100.00;100532.63;4997281;28;20203;-79
2023/05/23 10:55:57;;;;;;;11.30;8.40;;;;;;;11.43;100.00;100552.63;4999447;28;20225;-78
2023/05/23 10:58:23;;;;;;;9.70;7.70;;;;;;;11.42;100.00;100554.38;4999354;28;20260;-79
2023/05/23 11:00:54;;;;;;;10.93;8.43;;;;;;;11.42;100.00;100557.00;4999004;28;20213;-79
2023/05/23 11:03:34;;;;;;;12.00;8.00;;;;;;;11.48;100.00;100567.31;4998072;28;20681;-79
2023/05/23 11:06:01;;;;;;;8.73;6.80;;;;;;;11.45;100.00;100582.19;4997176;28;20260;-79